Time;durP1;ratioP1;P1;durP2;ratioP2;P2;SDS_P1;SDS_P2;PMS_P1;PMS_P2;Temp;Humidity;BMP_temperature;BMP_pressure;BME280_temperature;BME280_humidity;BME280_pressure;Samples;Min_cycle;Max_cycle;Signal;HPM_P1;HPM_P2
2022/03/18 00:02:21;;;;;;;20.10;11.93;;;;;;;2.77;77.72;101733.75;4952639;28;20051;-65
2022/03/18 00:04:47;;;;;;;18.13;13.00;;;;;;;2.69;78.46;101724.97;4953730;28;20035;-66
2022/03/18 00:07:13;;;;;;;26.63;12.95;;;;;;;2.65;78.06;101736.19;4953250;28;20447;-68
2022/03/18 00:09:41;;;;;;;20.10;12.48;;;;;;;2.65;78.45;101733.56;4949970;28;20039;-66
2022/03/18 00:12:10;;;;;;;17.60;12.18;;;;;;;2.67;78.38;101736.22;4933017;29;20380;-66
2022/03/18 00:14:39;;;;;;;22.27;13.63;;;;;;;2.68;78.13;101741.44;4935339;29;20471;-66
2022/03/18 00:17:05;;;;;;;21.75;14.77;;;;;;;2.70;78.12;101744.06;4933082;29;20039;-66
2022/03/18 00:19:31;;;;;;;20.10;12.30;;;;;;;2.67;78.35;101733.63;4933200;29;20051;-66
2022/03/18 00:22:01;;;;;;;24.33;13.40;;;;;;;2.64;77.96;101736.19;4932440;29;20039;-66
2022/03/18 00:24:33;;;;;;;27.17;14.60;;;;;;;2.62;78.65;101735.28;4936530;29;20431;-67
2022/03/18 00:27:03;;;;;;;20.27;12.80;;;;;;;2.62;78.29;101737.88;4936129;29;20043;-66
2022/03/18 00:29:29;;;;;;;26.33;12.73;;;;;;;2.62;78.21;101733.53;4933331;29;20062;-67
2022/03/18 00:31:54;;;;;;;16.40;12.50;;;;;;;2.62;78.31;101735.28;4932874;29;20484;-67
2022/03/18 00:34:20;;;;;;;22.23;11.27;;;;;;;2.61;78.06;101729.19;4932935;29;20036;-68
2022/03/18 00:36:45;;;;;;;21.13;12.38;;;;;;;2.59;78.07;101736.09;4933597;29;20040;-66
2022/03/18 00:39:11;;;;;;;17.13;12.00;;;;;;;2.56;78.27;101736.94;4933057;29;20035;-67
2022/03/18 00:41:36;;;;;;;23.67;13.10;;;;;;;2.52;78.11;101734.25;4931866;29;20032;-66
2022/03/18 00:44:02;;;;;;;19.30;11.77;;;;;;;2.49;78.21;101744.63;4932803;29;20050;-66
2022/03/18 00:46:27;;;;;;;20.38;13.27;;;;;;;2.47;78.47;101743.72;4932906;29;20054;-65
2022/03/18 00:54:21;;;;;;;21.50;12.48;;;;;;;2.37;78.64;101740.09;4932553;29;20047;-66
2022/03/18 00:56:47;;;;;;;18.33;12.43;;;;;;;2.34;78.63;101740.94;4933022;29;20036;-66
2022/03/18 00:59:12;;;;;;;25.52;13.50;;;;;;;2.31;78.48;101740.00;4932427;29;20130;-65
2022/03/18 01:01:38;;;;;;;21.63;12.88;;;;;;;2.28;79.00;101745.16;4931835;29;20518;-66
2022/03/18 01:04:04;;;;;;;20.08;13.38;;;;;;;2.26;78.93;101742.50;4932989;29;20039;-66
2022/03/18 01:06:30;;;;;;;25.05;14.82;;;;;;;2.27;78.98;101744.28;4932383;29;20118;-66
2022/03/18 01:08:56;;;;;;;21.63;12.90;;;;;;;2.23;78.78;101747.69;4932622;29;20183;-64
2022/03/18 01:11:22;;;;;;;30.52;16.38;;;;;;;2.23;79.20;101744.22;4931708;29;20131;-67
2022/03/18 01:13:47;;;;;;;26.13;13.18;;;;;;;2.21;78.85;101744.16;4933213;29;20076;-67
2022/03/18 01:16:13;;;;;;;22.42;14.35;;;;;;;2.23;79.03;101752.88;4932779;29;20500;-65
2022/03/18 01:18:38;;;;;;;19.73;14.02;;;;;;;2.20;79.06;101746.75;4932880;29;20054;-66
2022/03/18 01:21:04;;;;;;;26.73;14.27;;;;;;;2.19;78.94;101740.69;4932604;29;20044;-67
2022/03/18 01:23:29;;;;;;;17.70;13.90;;;;;;;2.19;79.18;101750.19;4933252;29;20043;-67
2022/03/18 01:25:55;;;;;;;23.30;15.77;;;;;;;2.15;79.17;101744.09;4915900;29;20139;-67
2022/03/18 01:28:21;;;;;;;24.98;16.48;;;;;;;2.16;78.91;101753.63;4933007;29;20069;-66
2022/03/18 01:30:47;;;;;;;21.90;13.77;;;;;;;2.12;79.54;101757.06;4932454;29;20054;-66
2022/03/18 01:33:12;;;;;;;18.55;13.77;;;;;;;2.10;79.21;101759.59;4914481;29;20047;-66
2022/03/18 01:35:38;;;;;;;19.15;13.25;;;;;;;2.16;79.24;101756.22;4932080;29;21600;-66
2022/03/18 01:38:04;;;;;;;18.38;13.40;;;;;;;2.14;78.73;101758.81;4932321;29;20040;-65
2022/03/18 01:40:29;;;;;;;21.33;14.20;;;;;;;2.15;79.04;101765.75;4932022;29;20049;-66
2022/03/18 01:42:55;;;;;;;25.77;15.32;;;;;;;2.12;78.79;101765.72;4935129;28;20050;-67
2022/03/18 01:45:21;;;;;;;22.30;14.30;;;;;;;2.10;78.98;101766.56;4951163;28;20054;-67
2022/03/18 01:47:47;;;;;;;23.60;15.23;;;;;;;2.00;79.07;101764.63;4951419;28;20094;-67
2022/03/18 01:50:14;;;;;;;22.15;13.43;;;;;;;1.95;78.98;101768.88;4950951;28;20043;-66
2022/03/18 01:52:42;;;;;;;23.65;16.23;;;;;;;1.93;79.50;101776.66;4951228;28;20039;-66
2022/03/18 01:55:07;;;;;;;22.27;14.20;;;;;;;1.86;79.31;101773.03;4950918;28;20122;-67
2022/03/18 01:57:33;;;;;;;20.85;13.50;;;;;;;1.85;79.70;101779.09;4951022;28;20130;-66
2022/03/18 01:59:59;;;;;;;21.13;14.23;;;;;;;1.87;79.46;101785.22;4951213;28;20407;-65
2022/03/18 02:02:25;;;;;;;26.23;13.82;;;;;;;1.82;79.53;101778.16;4945328;28;20059;-65
2022/03/18 02:04:51;;;;;;;21.90;15.00;;;;;;;1.78;79.73;101784.16;4950973;28;20066;-66
2022/03/18 02:07:17;;;;;;;21.38;13.30;;;;;;;1.78;80.49;101784.16;4951194;28;20054;-66
2022/03/18 02:09:44;;;;;;;17.48;13.23;;;;;;;1.76;79.73;101783.25;4951059;28;20039;-65
2022/03/18 02:12:10;;;;;;;30.00;16.92;;;;;;;1.72;80.01;101784.91;4950901;28;20042;-67
2022/03/18 02:14:44;;;;;;;25.98;16.38;;;;;;;1.69;79.65;101774.47;4942005;28;20122;-66
2022/03/18 02:17:11;;;;;;;26.85;15.95;;;;;;;1.65;79.84;101788.22;4950829;29;20046;-66
2022/03/18 02:19:38;;;;;;;20.80;14.32;;;;;;;1.64;79.94;101792.56;4951188;29;20035;-67
2022/03/18 02:22:14;;;;;;;21.63;14.20;;;;;;;1.67;79.79;101787.44;4950219;28;20043;-65
2022/03/18 02:24:44;;;;;;;29.00;16.05;;;;;;;1.68;79.70;101798.72;4955095;28;20122;-65
2022/03/18 02:27:09;;;;;;;29.83;19.33;;;;;;;1.63;80.09;101801.22;4958888;29;20039;-66
2022/03/18 02:29:35;;;;;;;28.70;18.80;;;;;;;1.54;79.98;101802.75;4957446;29;20112;-66
2022/03/18 02:32:02;;;;;;;23.77;16.30;;;;;;;1.48;80.33;101803.53;4940754;29;20039;-66
2022/03/18 02:34:28;;;;;;;25.25;18.13;;;;;;;1.44;80.18;101809.50;4960581;29;20039;-66
2022/03/18 02:36:54;;;;;;;27.75;16.15;;;;;;;1.40;79.88;101810.25;4939410;29;20487;-66
2022/03/18 02:39:19;;;;;;;20.65;13.52;;;;;;;1.41;80.50;101810.31;4955588;29;20050;-66
2022/03/18 02:41:44;;;;;;;24.30;16.02;;;;;;;1.39;80.31;101809.38;4955470;29;20042;-66
2022/03/18 02:44:10;;;;;;;27.98;18.23;;;;;;;1.34;79.96;101813.63;4956581;29;20046;-66
2022/03/18 02:46:35;;;;;;;30.63;19.92;;;;;;;1.30;80.41;101816.97;4956401;29;20705;-67
2022/03/18 02:49:02;;;;;;;25.63;15.77;;;;;;;1.32;80.35;101828.28;4961724;29;20059;-65
2022/03/18 02:51:28;;;;;;;29.35;19.02;;;;;;;1.32;79.79;101830.88;4962822;29;20550;-67
2022/03/18 02:53:55;;;;;;;34.95;20.55;;;;;;;1.27;80.68;101835.09;4954475;29;20122;-67
2022/03/18 02:56:21;;;;;;;26.50;16.63;;;;;;;1.24;80.55;101832.44;4953840;29;20134;-66
2022/03/18 02:58:46;;;;;;;27.20;17.23;;;;;;;1.23;80.74;101828.09;4953633;29;20387;-67
2022/03/18 03:01:12;;;;;;;32.78;19.08;;;;;;;1.22;80.72;101832.41;4953131;29;20471;-66
2022/03/18 03:03:38;;;;;;;21.60;14.52;;;;;;;1.22;80.28;101840.19;4954232;29;20031;-67
2022/03/18 03:08:47;;;;;;;23.88;15.75;;;;;;;1.19;79.85;101844.47;4953732;29;20058;-67
2022/03/18 03:11:13;;;;;;;27.88;16.02;;;;;;;1.14;80.58;101844.34;4953438;29;20027;-67
2022/03/18 03:13:38;;;;;;;32.40;16.00;;;;;;;1.12;81.03;101840.84;4954045;29;20083;-67
2022/03/18 03:16:08;;;;;;;25.63;16.35;;;;;;;1.09;81.22;101843.38;4954124;29;20036;-68
2022/03/18 03:18:33;;;;;;;31.33;17.95;;;;;;;1.06;81.14;101849.38;4961191;29;20045;-67
2022/03/18 03:20:59;;;;;;;23.08;15.52;;;;;;;1.06;81.04;101844.19;4968479;29;20059;-66
2022/03/18 03:23:25;;;;;;;25.77;15.50;;;;;;;1.06;80.48;101851.97;4970187;29;20039;-66
2022/03/18 03:25:54;;;;;;;26.75;17.75;;;;;;;1.04;80.21;101847.59;4951591;29;20534;-66
2022/03/18 03:28:20;;;;;;;24.67;17.30;;;;;;;1.01;80.62;101855.28;4960954;29;20035;-67
2022/03/18 03:30:45;;;;;;;25.70;16.90;;;;;;;0.99;80.77;101855.28;4955372;29;20037;-67
2022/03/18 03:33:11;;;;;;;25.67;17.10;;;;;;;0.99;81.00;101859.59;4936685;29;20035;-67
2022/03/18 03:35:37;;;;;;;22.38;13.75;;;;;;;0.98;80.29;101863.88;4954497;28;20046;-69
2022/03/18 03:38:07;;;;;;;22.20;15.70;;;;;;;1.01;80.89;101865.69;4959921;28;20105;-66
2022/03/18 03:40:33;;;;;;;29.10;17.73;;;;;;;0.97;80.43;101869.06;4960874;28;20035;-66
2022/03/18 03:42:58;;;;;;;27.05;16.88;;;;;;;0.96;80.77;101867.28;4961651;28;20123;-67
2022/03/18 03:45:24;;;;;;;35.05;17.23;;;;;;;0.88;80.62;101867.13;4954635;28;20036;-67
2022/03/18 03:47:50;;;;;;;25.27;17.67;;;;;;;0.81;80.80;101857.41;4954964;28;20035;-66
2022/03/18 03:50:16;;;;;;;30.40;19.92;;;;;;;0.79;81.08;101853.94;4952976;28;20043;-66
2022/03/18 03:52:42;;;;;;;27.35;17.75;;;;;;;0.70;80.92;101851.97;4953019;28;20034;-66
2022/03/18 03:55:10;;;;;;;27.45;17.95;;;;;;;0.67;81.20;101864.88;4953403;28;20477;-66
2022/03/18 03:57:35;;;;;;;32.13;17.55;;;;;;;0.71;82.18;101866.69;4952929;28;20042;-66
2022/03/18 04:00:03;;;;;;;24.23;15.35;;;;;;;0.79;81.55;101877.31;4952521;28;20039;-67
2022/03/18 04:02:28;;;;;;;26.05;17.77;;;;;;;0.87;80.94;101877.47;4952298;28;20388;-66
2022/03/18 04:04:53;;;;;;;27.40;18.42;;;;;;;0.88;81.28;101880.09;4952878;28;20042;-67
2022/03/18 04:07:19;;;;;;;36.42;22.20;;;;;;;0.85;81.38;101883.50;4954115;28;20496;-67
2022/03/18 04:09:47;;;;;;;28.02;18.92;;;;;;;0.82;81.17;101885.16;4954956;28;20157;-66
2022/03/18 04:12:13;;;;;;;28.73;17.85;;;;;;;0.77;81.30;101885.03;4953708;28;20114;-66
2022/03/18 04:14:38;;;;;;;29.73;20.35;;;;;;;0.73;81.30;101879.72;4936860;29;20122;-66
2022/03/18 04:17:04;;;;;;;32.08;20.85;;;;;;;0.70;81.45;101897.84;4955607;29;20035;-66
2022/03/18 04:19:29;;;;;;;33.47;20.60;;;;;;;0.68;80.94;101892.59;4956328;29;20035;-66
2022/03/18 04:21:55;;;;;;;34.95;22.15;;;;;;;0.70;81.19;101900.44;4954615;29;20035;-67
2022/03/18 04:24:20;;;;;;;30.60;18.05;;;;;;;0.71;81.64;101907.38;4953130;29;20032;-66
2022/03/18 04:26:46;;;;;;;34.10;22.50;;;;;;;0.70;81.20;101906.50;4952471;29;20039;-66
2022/03/18 04:29:12;;;;;;;33.63;19.63;;;;;;;0.70;81.32;101906.50;4935018;29;20035;-67
2022/03/18 04:31:39;;;;;;;31.52;19.05;;;;;;;0.67;81.66;101902.94;4952130;29;20050;-67
2022/03/18 04:34:04;;;;;;;34.53;21.15;;;;;;;0.61;81.82;101909.72;4952061;29;20051;-66
2022/03/18 04:36:30;;;;;;;31.08;19.15;;;;;;;0.57;81.60;101909.63;4952074;29;20066;-66
2022/03/18 04:38:55;;;;;;;32.15;21.42;;;;;;;0.54;82.63;101910.44;4952022;29;20035;-68
2022/03/18 04:41:21;;;;;;;32.80;23.80;;;;;;;0.53;82.94;101908.66;4951546;29;20131;-66
2022/03/18 04:43:46;;;;;;;31.02;20.38;;;;;;;0.51;81.91;101902.53;4952013;28;20641;-66
2022/03/18 04:46:11;;;;;;;29.52;17.50;;;;;;;0.49;82.24;101911.13;4951872;28;20134;-66
2022/03/18 04:48:37;;;;;;;27.08;16.85;;;;;;;0.47;82.54;101910.19;4952530;29;20127;-66
2022/03/18 04:51:02;;;;;;;28.30;17.85;;;;;;;0.47;82.30;101916.28;4951252;29;20039;-66
2022/03/18 04:53:28;;;;;;;31.88;18.15;;;;;;;0.47;81.93;101905.00;4951901;29;20061;-67
2022/03/18 04:55:53;;;;;;;29.08;18.92;;;;;;;0.45;81.55;101907.59;4951731;29;20039;-66
2022/03/18 04:58:19;;;;;;;28.38;16.77;;;;;;;0.47;81.70;101902.41;4951962;29;20042;-67
2022/03/18 05:00:44;;;;;;;34.60;20.85;;;;;;;0.48;81.61;101911.97;4933895;29;20042;-66
2022/03/18 05:03:12;;;;;;;31.35;16.92;;;;;;;0.46;81.48;101917.09;4951689;29;20066;-66
2022/03/18 05:05:38;;;;;;;23.92;15.23;;;;;;;0.49;82.24;101917.19;4951720;29;20043;-66
2022/03/18 05:08:04;;;;;;;34.45;22.08;;;;;;;0.48;81.35;101928.41;4934270;29;20054;-67
2022/03/18 05:10:29;;;;;;;29.80;17.15;;;;;;;0.48;81.69;101924.94;4951440;29;20039;-67
2022/03/18 05:12:55;;;;;;;32.28;19.90;;;;;;;0.48;81.73;101937.91;4951302;29;20483;-67
2022/03/18 05:15:21;;;;;;;33.83;20.92;;;;;;;0.46;81.54;101942.19;4951578;29;20039;-67
2022/03/18 05:17:51;;;;;;;29.48;20.05;;;;;;;0.49;81.90;101947.44;4951974;29;20027;-67
2022/03/18 05:20:18;;;;;;;30.48;16.52;;;;;;;0.45;82.24;101954.28;4951061;29;20043;-66
2022/03/18 05:22:45;;;;;;;34.53;17.27;;;;;;;0.42;81.60;101967.19;4951063;29;20035;-66
2022/03/18 05:25:11;;;;;;;27.20;16.73;;;;;;;0.41;82.20;101971.47;4951706;29;20039;-67
2022/03/18 05:27:44;;;;;;;25.25;16.98;;;;;;;0.47;81.97;101978.56;4951660;29;20039;-68
2022/03/18 05:30:11;;;;;;;30.77;18.70;;;;;;;0.47;81.62;101970.78;4935294;29;20035;-66
2022/03/18 05:32:37;;;;;;;32.00;20.83;;;;;;;0.46;82.04;101981.09;4953081;28;20464;-65
2022/03/18 05:35:04;;;;;;;34.38;19.55;;;;;;;0.40;81.54;101976.63;4952514;28;20051;-68
2022/03/18 05:37:30;;;;;;;28.98;17.63;;;;;;;0.33;82.14;101978.19;4951978;28;20039;-66
2022/03/18 05:39:55;;;;;;;31.73;20.80;;;;;;;0.28;81.94;101976.28;4952508;28;20086;-65
2022/03/18 05:42:21;;;;;;;35.15;22.15;;;;;;;0.25;82.11;101973.59;4945755;28;20492;-66
2022/03/18 05:44:46;;;;;;;28.50;18.95;;;;;;;0.26;82.32;101977.97;4932158;29;20500;-67
2022/03/18 05:47:11;;;;;;;24.17;16.48;;;;;;;0.28;82.55;101979.75;4932236;29;20563;-67
2022/03/18 05:49:37;;;;;;;27.73;18.58;;;;;;;0.29;82.75;101980.63;4932413;29;20047;-67
2022/03/18 05:52:02;;;;;;;31.90;19.70;;;;;;;0.26;82.01;101998.72;4931611;29;20042;-65
2022/03/18 05:54:28;;;;;;;28.30;18.00;;;;;;;0.28;82.90;101997.06;4932132;29;20035;-67
2022/03/18 05:56:53;;;;;;;29.98;15.48;;;;;;;0.29;82.23;102007.44;4932197;29;20392;-67
2022/03/18 05:59:20;;;;;;;30.35;20.58;;;;;;;0.32;81.98;102006.66;4935982;29;20070;-66
2022/03/18 06:01:46;;;;;;;33.33;19.13;;;;;;;0.32;81.94;102004.97;4935277;29;20035;-65
2022/03/18 06:04:12;;;;;;;33.55;20.77;;;;;;;0.32;82.56;102006.66;4935933;29;20042;-68
2022/03/18 06:06:39;;;;;;;40.72;20.63;;;;;;;0.33;82.24;102017.09;4936641;29;20492;-66
2022/03/18 06:11:49;;;;;;;32.63;20.95;;;;;;;0.30;81.68;102016.13;4935255;29;20051;-67
2022/03/18 06:14:18;;;;;;;33.78;21.05;;;;;;;0.30;81.58;102021.31;4936299;29;20043;-66
2022/03/18 06:16:50;;;;;;;30.33;19.65;;;;;;;0.27;82.51;102013.44;4935848;29;20039;-67
2022/03/18 06:19:17;;;;;;;26.80;18.30;;;;;;;0.24;81.83;102009.03;4948588;29;20063;-68
2022/03/18 06:21:43;;;;;;;28.33;20.02;;;;;;;0.27;82.57;102010.84;4953589;29;20090;-67
2022/03/18 06:24:09;;;;;;;30.33;19.40;;;;;;;0.30;82.31;102005.75;4954833;29;20047;-67
2022/03/18 06:26:35;;;;;;;33.63;20.85;;;;;;;0.33;81.49;102014.50;4954651;29;20114;-66
2022/03/18 06:29:01;;;;;;;35.58;20.38;;;;;;;0.37;81.71;102015.44;4954440;29;20050;-66
2022/03/18 06:31:26;;;;;;;30.38;18.02;;;;;;;0.42;82.30;102019.09;4953203;29;20122;-67
2022/03/18 06:33:52;;;;;;;32.55;21.00;;;;;;;0.53;82.10;102020.25;4954095;29;20047;-65
2022/03/18 06:36:17;;;;;;;35.85;19.23;;;;;;;0.85;81.69;102025.44;4954437;29;20420;-64
2022/03/18 06:38:43;;;;;;;31.20;20.65;;;;;;;1.12;80.81;102025.28;4954448;29;20046;-66
2022/03/18 06:41:08;;;;;;;32.47;20.08;;;;;;;1.39;79.85;102030.28;4953793;29;20388;-66
2022/03/18 06:43:34;;;;;;;32.47;19.85;;;;;;;1.54;79.21;102042.78;4953939;28;20043;-66
2022/03/18 06:45:59;;;;;;;33.13;19.30;;;;;;;1.68;78.68;102035.31;4936801;29;20035;-65
2022/03/18 06:48:25;;;;;;;38.60;21.27;;;;;;;1.71;78.11;102038.84;4954642;29;20487;-65
2022/03/18 06:50:51;;;;;;;35.53;21.42;;;;;;;1.76;78.11;102033.75;4953886;29;20066;-65
2022/03/18 06:53:16;;;;;;;32.85;20.65;;;;;;;1.83;78.70;102040.00;4953936;29;20440;-66
2022/03/18 06:55:41;;;;;;;34.13;20.88;;;;;;;1.90;79.08;102037.56;4954564;29;20077;-64
2022/03/18 06:58:07;;;;;;;35.72;22.40;;;;;;;2.10;78.55;102034.53;4953707;29;20411;-65
2022/03/18 07:00:32;;;;;;;27.77;18.92;;;;;;;2.32;78.02;102028.91;4953622;29;20172;-67
2022/03/18 07:02:58;;;;;;;31.38;20.52;;;;;;;2.58;76.92;102037.28;4953531;29;20036;-66
2022/03/18 07:05:23;;;;;;;25.80;16.40;;;;;;;2.86;76.75;102034.31;4953236;29;20467;-67
2022/03/18 07:07:49;;;;;;;28.85;18.40;;;;;;;3.15;75.55;102032.22;4953812;29;20041;-65
2022/03/18 07:10:15;;;;;;;24.67;15.68;;;;;;;3.39;74.92;102039.59;4953328;28;20039;-67
2022/03/18 07:12:40;;;;;;;23.98;16.42;;;;;;;3.61;74.54;102038.19;4945534;29;20031;-67
2022/03/18 07:15:06;;;;;;;22.98;15.15;;;;;;;3.76;73.92;102041.03;4936655;29;20062;-66
2022/03/18 07:20:16;;;;;;;27.45;18.10;;;;;;;4.06;72.75;102050.16;4952496;29;20411;-67
2022/03/18 07:22:42;;;;;;;21.75;14.98;;;;;;;4.15;73.35;102052.91;4952790;29;20039;-67
2022/03/18 07:25:08;;;;;;;24.08;14.52;;;;;;;4.26;72.97;102053.94;4953291;29;20510;-65
2022/03/18 07:27:34;;;;;;;22.75;13.88;;;;;;;4.36;72.72;102051.47;4953455;29;20066;-65
2022/03/18 07:29:59;;;;;;;28.38;14.85;;;;;;;4.44;72.20;102058.53;4953468;29;20059;-67
2022/03/18 07:32:24;;;;;;;23.10;14.10;;;;;;;4.56;71.93;102054.31;4952750;29;20062;-67
2022/03/18 07:34:50;;;;;;;25.85;14.63;;;;;;;4.65;71.91;102057.91;4953043;28;20035;-66
2022/03/18 07:37:15;;;;;;;21.40;11.73;;;;;;;4.84;71.74;102055.50;4952203;28;20039;-65
2022/03/18 07:39:41;;;;;;;24.40;13.15;;;;;;;4.99;70.54;102053.03;4953371;28;20038;-66
2022/03/18 07:42:06;;;;;;;22.95;12.18;;;;;;;5.24;70.56;102040.19;4952586;28;20405;-67
2022/03/18 07:44:31;;;;;;;22.05;13.00;;;;;;;5.55;68.68;102028.25;4952561;28;20039;-67
2022/03/18 07:46:57;;;;;;;23.85;12.38;;;;;;;5.95;68.17;102018.97;4951508;28;20035;-67
2022/03/18 07:49:22;;;;;;;21.50;10.55;;;;;;;6.45;66.55;102018.34;4952781;28;20511;-67
2022/03/18 07:51:48;;;;;;;17.48;10.95;;;;;;;6.95;65.13;102018.47;4952250;28;20511;-67
2022/03/18 07:54:13;;;;;;;24.88;10.65;;;;;;;7.45;64.13;102022.88;4952866;28;20039;-67
2022/03/18 07:56:39;;;;;;;28.00;11.82;;;;;;;8.10;61.09;102021.91;4953217;28;20114;-67
2022/03/18 07:59:04;;;;;;;19.08;7.72;;;;;;;8.84;59.59;102031.25;4952785;28;20642;-66
2022/03/18 08:01:29;;;;;;;20.48;7.70;;;;;;;9.44;57.54;102019.38;4951961;28;20039;-67
2022/03/18 08:03:55;;;;;;;13.10;7.68;;;;;;;9.99;55.72;102017.09;4952505;28;20034;-66
2022/03/18 08:06:20;;;;;;;16.42;7.65;;;;;;;10.32;52.81;102029.94;4952618;28;20054;-66
2022/03/18 08:08:45;;;;;;;16.52;6.75;;;;;;;11.05;51.52;102016.63;4952762;28;20061;-67
2022/03/18 08:11:11;;;;;;;12.25;5.43;;;;;;;11.21;49.75;102026.94;4952304;28;20481;-67
2022/03/18 08:13:37;;;;;;;20.70;6.47;;;;;;;11.47;49.27;102022.13;4952384;28;20041;-67
2022/03/18 08:16:03;;;;;;;17.63;6.20;;;;;;;12.12;47.49;102021.81;4952356;29;20047;-66
2022/03/18 08:18:28;;;;;;;15.80;6.47;;;;;;;12.68;47.34;102019.75;4952547;29;20454;-65
2022/03/18 08:20:54;;;;;;;18.17;6.68;;;;;;;13.25;45.26;102018.44;4952635;28;20563;-66
2022/03/18 08:23:19;;;;;;;19.52;6.47;;;;;;;13.71;43.59;102012.00;4952059;29;20086;-66
2022/03/18 08:25:45;;;;;;;13.07;5.88;;;;;;;14.28;41.94;102018.38;4951973;29;20031;-67
2022/03/18 08:28:11;;;;;;;15.80;5.18;;;;;;;14.84;41.15;102017.66;4952867;29;20131;-67
2022/03/18 08:30:37;;;;;;;14.95;5.40;;;;;;;15.31;39.16;102019.66;4952290;29;20039;-66
2022/03/18 08:33:03;;;;;;;12.32;5.70;;;;;;;15.66;38.06;102021.16;4951740;29;20038;-66
2022/03/18 08:35:30;;;;;;;12.02;5.75;;;;;;;16.02;37.40;102027.00;4952098;29;20065;-67
2022/03/18 08:37:56;;;;;;;11.43;6.72;;;;;;;16.55;35.45;102033.03;4935183;29;20114;-65
2022/03/18 08:40:26;;;;;;;10.52;5.10;;;;;;;16.70;35.10;102033.31;4951832;29;20070;-67
2022/03/18 08:42:53;;;;;;;10.05;4.82;;;;;;;17.00;33.55;102037.53;4951113;28;20039;-67
2022/03/18 08:45:19;;;;;;;12.25;4.60;;;;;;;17.12;33.31;102040.56;4951279;28;20051;-67
2022/03/18 08:47:45;;;;;;;12.02;4.50;;;;;;;16.41;33.42;102045.06;4951852;28;20035;-67
2022/03/18 08:50:11;;;;;;;9.13;3.67;;;;;;;16.37;32.79;102054.09;4952310;28;20046;-66
2022/03/18 08:52:37;;;;;;;10.90;5.70;;;;;;;16.04;32.50;102049.06;4951619;28;20039;-65
2022/03/18 08:55:03;;;;;;;7.40;3.80;;;;;;;16.05;31.85;102056.16;4950381;28;20251;-66
2022/03/18 08:57:31;;;;;;;10.23;3.67;;;;;;;15.73;32.13;102064.41;4952038;28;20460;-66
2022/03/18 08:59:57;;;;;;;8.18;3.25;;;;;;;15.95;31.08;102065.38;4951551;28;20575;-66
2022/03/18 09:02:22;;;;;;;8.82;3.65;;;;;;;16.28;30.36;102075.72;4951091;28;20126;-66
2022/03/18 09:04:52;;;;;;;11.85;3.30;;;;;;;16.05;30.32;102072.13;4952205;28;20031;-67
2022/03/18 09:07:18;;;;;;;7.45;4.00;;;;;;;15.91;30.57;102069.06;4953572;28;20495;-68
2022/03/18 09:09:44;;;;;;;6.55;3.67;;;;;;;16.01;30.26;102073.13;4953496;28;20039;-67
2022/03/18 09:12:09;;;;;;;11.40;3.65;;;;;;;16.50;30.74;102082.00;4952271;29;20031;-67
2022/03/18 09:14:35;;;;;;;9.55;4.40;;;;;;;16.78;29.85;102083.66;4952951;28;20094;-67
2022/03/18 09:17:00;;;;;;;10.40;4.10;;;;;;;17.32;28.35;102089.53;4952795;28;20122;-66
2022/03/18 09:19:26;;;;;;;10.93;4.00;;;;;;;17.56;29.06;102091.19;4951890;28;20066;-67
2022/03/18 09:21:51;;;;;;;6.95;2.63;;;;;;;17.74;28.10;102094.00;4951230;28;20035;-66
2022/03/18 09:24:17;;;;;;;7.65;3.90;;;;;;;17.73;28.17;102100.28;4951379;28;20051;-66
2022/03/18 09:26:42;;;;;;;12.93;4.80;;;;;;;17.21;27.70;102103.31;4952905;28;20245;-68
2022/03/18 09:29:08;;;;;;;5.80;3.63;;;;;;;17.51;28.22;102102.97;4952471;28;20735;-67
2022/03/18 09:31:33;;;;;;;7.43;3.45;;;;;;;17.83;27.87;102106.13;4951338;28;20597;-68
2022/03/18 09:33:58;;;;;;;9.57;4.30;;;;;;;18.10;27.39;102104.94;4951062;28;20081;-67
2022/03/18 09:36:25;;;;;;;20.67;4.88;;;;;;;18.28;27.15;102110.41;4951380;28;20130;-66
2022/03/18 09:38:50;;;;;;;9.35;3.47;;;;;;;18.55;26.68;102110.97;4951501;28;20039;-66
2022/03/18 09:41:16;;;;;;;9.50;3.78;;;;;;;18.57;26.24;102122.47;4953025;28;20038;-66
2022/03/18 09:43:42;;;;;;;10.30;4.50;;;;;;;18.80;26.70;102118.75;4953068;28;20046;-67
2022/03/18 09:46:10;;;;;;;13.23;5.20;;;;;;;19.39;25.92;102112.34;4952494;28;20666;-67
2022/03/18 09:48:37;;;;;;;7.75;4.55;;;;;;;19.51;26.36;102117.09;4953618;28;20183;-66
2022/03/18 09:51:03;;;;;;;10.60;4.25;;;;;;;19.53;26.24;102119.72;4954399;28;20038;-67
2022/03/18 09:53:28;;;;;;;8.27;4.22;;;;;;;19.54;25.15;102126.78;4956454;28;20089;-67
2022/03/18 09:55:54;;;;;;;9.02;4.45;;;;;;;19.24;25.51;102129.16;4955059;28;20095;-67
2022/03/18 09:58:21;;;;;;;8.85;4.03;;;;;;;18.96;25.03;102122.47;4956277;28;20039;-67
2022/03/18 10:00:48;;;;;;;8.95;4.43;;;;;;;18.84;25.60;102128.38;4957637;28;20059;-67
2022/03/18 10:03:17;;;;;;;6.38;3.42;;;;;;;19.06;24.92;102129.09;4960094;28;20043;-66
2022/03/18 10:05:57;;;;;;;15.75;4.30;;;;;;;19.02;23.91;102135.53;4941436;29;20048;-67
2022/03/18 10:08:23;;;;;;;7.57;4.68;;;;;;;19.19;24.02;102129.38;4933791;29;20455;-66
2022/03/18 10:10:49;;;;;;;7.35;4.70;;;;;;;18.95;24.96;102131.44;4932618;29;20039;-67
2022/03/18 10:13:16;;;;;;;10.88;4.63;;;;;;;19.19;25.13;102137.41;4931804;29;20091;-66
2022/03/18 10:15:43;;;;;;;9.25;4.15;;;;;;;19.49;24.62;102137.75;4932748;29;20115;-67
2022/03/18 10:18:13;;;;;;;8.80;4.80;;;;;;;19.69;24.98;102128.75;4933670;29;20404;-66
2022/03/18 10:20:54;;;;;;;11.02;4.10;;;;;;;20.31;25.07;102125.59;4933131;29;20087;-66
2022/03/18 10:23:22;;;;;;;11.02;5.35;;;;;;;21.18;23.82;102128.88;4951547;28;20483;-67
2022/03/18 10:25:57;;;;;;;12.13;4.28;;;;;;;20.88;23.07;102126.09;4934768;29;20046;-67
2022/03/18 10:28:41;;;;;;;11.95;4.78;;;;;;;20.76;24.89;102130.31;4932658;29;20075;-67
2022/03/18 10:31:15;;;;;;;13.05;5.38;;;;;;;20.94;25.31;102124.88;4911217;29;20091;-68
2022/03/18 10:37:04;;;;;;;15.85;5.50;;;;;;;20.89;24.41;102127.81;4950819;28;20480;-64
2022/03/18 10:39:22;;;;;;;7.70;4.43;;;;;;;20.57;25.17;102118.88;4950517;28;20043;-67
2022/03/18 10:41:48;;;;;;;10.10;4.60;;;;;;;20.27;23.12;102124.03;4949996;28;20112;-67
2022/03/18 10:44:15;;;;;;;15.98;5.43;;;;;;;19.75;23.95;102122.22;4952358;28;20031;-66
2022/03/18 10:46:42;;;;;;;8.15;4.53;;;;;;;18.99;24.97;102132.13;4954429;28;20456;-67
2022/03/18 10:49:07;;;;;;;17.02;7.20;;;;;;;18.02;27.32;102125.78;4953881;28;20126;-67
2022/03/18 10:51:34;;;;;;;13.60;5.72;;;;;;;17.71;27.72;102136.84;4953282;28;20039;-67
2022/03/18 10:53:59;;;;;;;16.52;5.00;;;;;;;17.34;27.74;102130.34;4953564;28;20035;-66
2022/03/18 10:56:25;;;;;;;10.88;5.60;;;;;;;16.63;28.00;102126.81;4953812;28;20422;-67
2022/03/18 10:58:51;;;;;;;13.15;4.07;;;;;;;15.45;29.45;102129.94;4953712;28;20031;-66
2022/03/18 11:01:18;;;;;;;12.07;4.40;;;;;;;15.29;29.68;102130.50;4953410;28;20046;-66
2022/03/18 11:03:45;;;;;;;5.88;3.90;;;;;;;14.97;30.31;102127.03;4953809;28;20030;-66
2022/03/18 11:06:11;;;;;;;13.73;4.50;;;;;;;14.37;30.27;102134.91;4954117;28;20085;-67
2022/03/18 11:08:47;;;;;;;12.38;4.05;;;;;;;14.12;31.20;102125.84;4953862;28;20031;-65
2022/03/18 11:11:18;;;;;;;;;;;;;;;13.96;32.05;102136.00;4954129;28;20531;-66
2022/03/18 11:14:04;;;;;;;10.85;3.80;;;;;;;13.74;33.04;102131.22;4954386;28;19922;-65
2022/03/18 11:16:33;;;;;;;12.13;4.18;;;;;;;13.64;31.48;102126.19;4953645;28;20540;-67
2022/03/18 11:19:01;;;;;;;7.53;3.90;;;;;;;13.63;31.16;102135.03;4953779;28;20066;-65
2022/03/18 11:21:35;;;;;;;6.65;3.33;;;;;;;13.62;32.75;102141.25;4953235;28;20035;-67
2022/03/18 11:24:11;;;;;;;8.88;4.22;;;;;;;13.57;33.47;102125.47;4953904;28;20031;-67
2022/03/18 11:26:38;;;;;;;12.77;4.28;;;;;;;13.52;33.85;102136.16;4953729;28;20032;-67
2022/03/18 11:29:11;;;;;;;16.92;4.20;;;;;;;13.39;33.36;102141.78;4953617;28;22868;-67
2022/03/18 11:31:37;;;;;;;13.55;4.22;;;;;;;13.18;33.76;102135.16;4952773;28;20050;-66
2022/03/18 11:34:14;;;;;;;9.52;4.53;;;;;;;13.25;34.56;102136.78;4953533;28;20047;-66